createdAt,value
2022-09-27T00:00:44.626Z,9.712398
2022-09-27T00:01:44.703Z,9.712383
2022-09-27T00:02:44.678Z,9.712497
2022-09-27T00:03:44.609Z,9.712502
2022-09-27T00:04:44.611Z,9.712502
2022-09-27T00:05:44.584Z,9.712502
2022-09-27T00:06:44.581Z,9.712502
2022-09-27T00:07:44.565Z,9.712209
2022-09-27T00:08:44.566Z,9.712011
2022-09-27T00:09:46.496Z,9.711700
2022-09-27T00:10:44.551Z,9.711398
2022-09-27T00:11:44.545Z,9.711413
2022-09-27T00:12:44.547Z,9.711265
2022-09-27T00:13:44.522Z,9.711143
2022-09-27T00:14:44.524Z,9.711083
2022-09-27T00:15:44.536Z,9.711365
2022-09-27T00:16:44.498Z,9.711432
2022-09-27T00:17:45.422Z,9.711503
2022-09-27T00:18:44.481Z,9.711583
2022-09-27T00:19:44.484Z,9.711549
2022-09-27T00:20:44.483Z,9.711390
2022-09-27T00:21:44.462Z,9.711444
2022-09-27T00:22:44.455Z,9.711552
2022-09-27T00:23:44.447Z,9.711587
2022-09-27T00:24:44.450Z,9.711583
2022-09-27T00:25:44.428Z,9.711582
2022-09-27T00:26:44.428Z,9.711543
2022-09-27T00:27:44.419Z,9.711645
2022-09-27T00:28:44.407Z,9.711710
2022-09-27T00:31:57.082Z,9.711568
2022-09-27T00:32:57.061Z,9.711635
2022-09-27T00:33:57.061Z,9.711652
2022-09-27T00:34:57.048Z,9.711679
2022-09-27T00:35:57.034Z,9.711645
2022-09-27T00:36:57.043Z,9.711618
2022-09-27T00:37:57.019Z,9.711648
2022-09-27T00:38:57.015Z,9.711722
2022-09-27T00:39:57.010Z,9.711607
2022-09-27T00:40:57.137Z,9.711621
2022-09-27T00:41:56.985Z,9.711699
2022-09-27T00:42:56.988Z,9.711659
2022-09-27T00:43:56.970Z,9.711573
2022-09-27T00:44:56.976Z,9.711576
2022-09-27T00:45:57.008Z,9.711624
2022-09-27T00:46:56.946Z,9.711609
2022-09-27T00:47:56.949Z,9.711636
2022-09-27T00:48:57.845Z,9.711621
2022-09-27T00:49:57.935Z,9.711657
2022-09-27T00:50:56.942Z,9.711642
2022-09-27T00:51:56.906Z,9.711617
2022-09-27T00:52:56.914Z,9.711604
2022-09-27T00:53:56.891Z,9.711630
2022-09-27T00:54:56.885Z,9.711616
2022-09-27T00:55:56.870Z,9.711598
2022-09-27T00:56:57.878Z,9.711610
2022-09-27T00:57:56.853Z,9.711649
2022-09-27T00:58:56.852Z,9.711650
2022-09-27T00:59:56.847Z,9.711646
2022-09-27T01:00:56.937Z,9.711674
2022-09-27T01:01:56.960Z,9.711595
2022-09-27T01:02:56.915Z,9.711531
2022-09-27T01:03:56.815Z,9.711583
2022-09-27T01:04:56.814Z,9.711644
2022-09-27T01:05:56.827Z,9.711617
2022-09-27T01:06:56.782Z,9.711598
2022-09-27T01:07:56.811Z,9.711630
2022-09-27T01:08:56.769Z,9.711678
2022-09-27T01:09:56.765Z,9.711642
2022-09-27T01:10:56.772Z,9.711642
2022-09-27T01:11:56.766Z,9.711657
2022-09-27T01:12:56.739Z,9.711632
2022-09-27T01:13:56.725Z,9.711679
2022-09-27T01:14:56.715Z,9.711753
2022-09-27T01:15:56.795Z,9.711771
2022-09-27T01:16:56.708Z,9.711732
2022-09-27T01:17:56.703Z,9.711749
2022-09-27T01:18:56.691Z,9.711747
2022-09-27T01:19:56.683Z,9.711596
2022-09-27T01:20:56.689Z,9.711618
2022-09-27T01:21:56.662Z,9.711648
2022-09-27T01:22:56.661Z,9.711583
2022-09-27T01:23:56.653Z,9.711674
2022-09-27T01:24:56.645Z,9.711663
2022-09-27T01:25:56.664Z,9.711594
2022-09-27T01:26:56.625Z,9.711687
2022-09-27T01:27:56.618Z,9.711617
2022-09-27T01:28:57.313Z,9.711498
2022-09-27T01:29:56.612Z,9.711638
2022-09-27T01:30:56.686Z,9.711635
2022-09-27T01:31:56.589Z,9.711501
2022-09-27T01:32:56.584Z,9.711566
2022-09-27T01:33:56.590Z,9.711640
2022-09-27T01:34:56.560Z,9.711634
2022-09-27T01:35:56.575Z,9.711887
2022-09-27T01:36:56.539Z,9.712010
2022-09-27T01:37:56.531Z,9.712141
2022-09-27T01:38:56.530Z,9.711724
2022-09-27T01:39:56.528Z,9.711718
2022-09-27T01:40:57.415Z,9.711856
2022-09-27T01:41:56.512Z,9.711864
2022-09-27T01:42:56.496Z,9.711965
2022-09-27T01:43:56.488Z,9.711808
2022-09-27T01:44:56.527Z,9.711597
2022-09-27T01:45:56.579Z,9.711652
2022-09-27T01:46:56.878Z,9.711727
2022-09-27T01:47:56.457Z,9.711569
2022-09-27T01:48:56.447Z,9.711701
2022-09-27T01:49:56.444Z,9.711866
2022-09-27T01:50:56.428Z,9.711793
2022-09-27T01:51:56.423Z,9.711889
2022-09-27T01:52:57.357Z,9.711849
2022-09-27T01:53:56.405Z,9.711792
2022-09-27T01:54:56.393Z,9.711552
2022-09-27T01:55:56.402Z,9.711481
2022-09-27T01:56:56.385Z,9.711782
2022-09-27T01:57:56.374Z,9.711892
2022-09-27T01:58:56.368Z,9.711814
2022-09-27T01:59:56.355Z,9.711650
2022-09-27T02:00:56.352Z,9.711765
2022-09-27T02:01:56.418Z,9.711626
2022-09-27T02:02:56.387Z,9.711862
2022-09-27T02:03:57.906Z,9.711774
2022-09-27T02:20:03.594Z,9.711580
2022-09-27T02:42:11.366Z,9.711471
2022-09-27T02:43:11.349Z,9.710925
2022-09-27T02:44:11.351Z,9.710834
2022-09-27T02:45:11.336Z,9.711411
2022-09-27T02:46:11.360Z,9.711550
2022-09-27T02:47:11.323Z,9.711508
2022-09-27T02:48:11.315Z,9.711535
2022-09-27T02:49:11.401Z,9.711294
2022-09-27T02:50:11.292Z,9.711258
2022-09-27T02:51:11.296Z,9.711489
2022-09-27T02:52:11.276Z,9.711567
2022-09-27T02:53:11.276Z,9.711546
2022-09-27T02:54:11.271Z,9.711303
2022-09-27T02:55:11.254Z,9.711370
2022-09-27T02:56:11.252Z,9.711493
2022-09-27T02:57:11.285Z,9.711506
2022-09-27T02:58:11.234Z,9.711475
2022-09-27T02:59:11.226Z,9.711546
2022-09-27T03:00:11.211Z,9.711468
2022-09-27T03:01:11.290Z,9.711378
2022-09-27T03:02:13.782Z,9.711464
2022-09-27T03:03:12.302Z,9.711508
2022-09-27T03:04:11.188Z,9.711420
2022-09-27T03:05:11.868Z,9.711393
2022-09-27T03:06:12.872Z,9.711762
2022-09-27T03:07:11.158Z,9.711829
2022-09-27T03:08:11.799Z,9.711632
2022-09-27T03:09:11.180Z,9.711543
2022-09-27T03:10:11.873Z,9.711205
2022-09-27T03:11:11.129Z,9.711121
2022-09-27T03:12:11.118Z,9.711395
2022-09-27T03:13:11.103Z,9.711477
2022-09-27T03:14:11.107Z,9.711649
2022-09-27T03:15:11.143Z,9.711504
2022-09-27T03:16:11.098Z,9.711471
2022-09-27T03:17:11.149Z,9.711649
2022-09-27T03:18:11.065Z,9.711514
2022-09-27T03:19:11.195Z,9.711529
2022-09-27T03:20:11.055Z,9.711540
2022-09-27T03:21:11.857Z,9.711703
2022-09-27T03:22:11.034Z,9.711443
2022-09-27T03:23:11.028Z,9.711456
2022-09-27T03:24:11.874Z,9.711587
2022-09-27T03:25:11.015Z,9.711698
2022-09-27T03:26:13.220Z,9.711606
2022-09-27T03:27:12.003Z,9.711582
2022-09-27T03:28:10.988Z,9.711478
2022-09-27T03:29:10.980Z,9.711449
2022-09-27T03:30:10.969Z,9.711551
2022-09-27T03:31:11.084Z,9.711587
2022-09-27T03:32:10.955Z,9.711646
2022-09-27T03:33:10.952Z,9.711619
2022-09-27T03:34:10.943Z,9.711627
2022-09-27T03:35:10.928Z,9.711624
2022-09-27T03:36:11.395Z,9.711578
2022-09-27T03:37:10.912Z,9.711553
2022-09-27T03:38:10.914Z,9.711567
2022-09-27T03:39:10.943Z,9.711576
2022-09-27T03:40:10.889Z,9.711556
2022-09-27T03:41:11.895Z,9.711518
2022-09-27T03:42:10.875Z,9.711573
2022-09-27T03:43:10.867Z,9.711594
2022-09-27T03:44:10.860Z,9.711664
2022-09-27T03:45:10.846Z,9.711621
2022-09-27T03:46:12.431Z,9.711610
2022-09-27T03:47:10.830Z,9.711595
2022-09-27T03:48:10.824Z,9.711555
2022-09-27T03:49:11.807Z,9.711566
2022-09-27T03:50:10.808Z,9.711632
2022-09-27T03:51:10.813Z,9.711612
2022-09-27T03:52:10.798Z,9.711612
2022-09-27T03:53:10.785Z,9.711623
2022-09-27T03:54:10.779Z,9.711680
2022-09-27T03:55:10.772Z,9.711754
2022-09-27T03:56:12.300Z,9.711754
2022-09-27T03:57:10.749Z,9.711655
2022-09-27T03:58:10.748Z,9.711659
2022-09-27T03:59:10.842Z,9.711621
2022-09-27T04:00:11.383Z,9.711618
2022-09-27T04:01:10.801Z,9.711653
2022-09-27T04:02:10.774Z,9.711649
2022-09-27T04:03:10.702Z,9.711682
2022-09-27T04:04:11.568Z,9.711698
2022-09-27T04:05:10.699Z,9.711685
2022-09-27T04:06:10.683Z,9.711704
2022-09-27T04:07:10.673Z,9.711704
2022-09-27T04:08:11.392Z,9.711722
2022-09-27T04:09:10.727Z,9.711765
2022-09-27T04:10:11.312Z,9.711695
2022-09-27T04:11:10.636Z,9.711749
2022-09-27T04:12:10.668Z,9.711731
2022-09-27T04:13:10.618Z,9.711706
2022-09-27T04:14:10.620Z,9.711707
2022-09-27T04:15:10.617Z,9.711719
2022-09-27T04:16:10.599Z,9.711727
2022-09-27T04:17:10.623Z,9.711754
2022-09-27T04:18:10.582Z,9.711782
2022-09-27T04:19:10.584Z,9.711848
2022-09-27T04:20:10.568Z,9.711790
2022-09-27T04:21:10.564Z,9.711731
2022-09-27T04:22:10.551Z,9.712099
2022-09-27T04:23:10.542Z,9.711964
2022-09-27T04:24:10.532Z,9.712019
2022-09-27T04:25:10.534Z,9.711906
2022-09-27T04:26:10.524Z,9.711927
2022-09-27T04:27:10.509Z,9.711917
2022-09-27T04:28:10.513Z,9.711976
2022-09-27T04:29:10.546Z,9.712173
2022-09-27T04:30:10.496Z,9.712209
2022-09-27T04:31:10.577Z,9.711957
2022-09-27T04:32:10.482Z,9.711903
2022-09-27T04:33:10.468Z,9.711745
2022-09-27T04:34:10.459Z,9.711743
2022-09-27T04:35:10.470Z,9.711710
2022-09-27T04:36:11.442Z,9.711864
2022-09-27T04:37:10.445Z,9.711923
2022-09-27T04:38:10.429Z,9.711946
2022-09-27T04:39:11.452Z,9.712117
2022-09-27T04:40:11.322Z,9.712149
2022-09-27T04:41:10.416Z,9.712123
2022-09-27T04:42:10.395Z,9.712103
2022-09-27T04:43:10.889Z,9.711871
2022-09-27T04:44:10.390Z,9.712305
2022-09-27T04:45:10.377Z,9.712037
2022-09-27T04:46:10.415Z,9.711938
2022-09-27T04:47:12.318Z,9.712004
2022-09-27T04:48:10.352Z,9.711748
2022-09-27T04:49:10.397Z,9.711658
2022-09-27T04:50:10.339Z,9.711714
2022-09-27T04:51:11.325Z,9.711914
2022-09-27T04:52:10.323Z,9.712153
2022-09-27T04:53:10.314Z,9.712411
2022-09-27T04:54:10.897Z,9.712400
2022-09-27T04:55:10.305Z,9.712385
2022-09-27T04:56:10.900Z,9.712202
2022-09-27T04:57:10.279Z,9.711995
2022-09-27T04:58:10.287Z,9.711914
2022-09-27T04:59:10.950Z,9.711977
2022-09-27T05:00:10.268Z,9.712296
2022-09-27T05:01:10.384Z,9.712146
2022-09-27T05:02:10.272Z,9.711912
2022-09-27T05:03:10.233Z,9.711704
2022-09-27T05:04:10.235Z,9.711712
2022-09-27T05:05:10.221Z,9.711697
2022-09-27T05:06:10.211Z,9.711679
2022-09-27T05:07:10.903Z,9.711676
2022-09-27T05:08:10.194Z,9.711680
2022-09-27T05:09:10.875Z,9.711691
2022-09-27T05:10:10.177Z,9.711683
2022-09-27T05:11:10.178Z,9.711672
2022-09-27T05:12:10.161Z,9.711669
2022-09-27T05:13:10.158Z,9.711637
2022-09-27T05:14:10.155Z,9.711635
2022-09-27T05:15:11.141Z,9.711668
2022-09-27T05:16:10.341Z,9.711662
2022-09-27T05:17:10.208Z,9.711659
2022-09-27T05:18:10.154Z,9.711645
2022-09-27T05:19:10.109Z,9.711632
2022-09-27T05:20:10.905Z,9.711676
2022-09-27T05:21:10.098Z,9.711687
2022-09-27T05:22:10.083Z,9.711577
2022-09-27T05:23:10.069Z,9.711582
2022-09-27T05:24:10.070Z,9.711623
2022-09-27T05:25:10.061Z,9.711677
2022-09-27T05:26:10.053Z,9.711667
2022-09-27T05:27:10.049Z,9.711651
2022-09-27T05:28:10.032Z,9.711617
2022-09-27T05:29:10.065Z,9.711637
2022-09-27T05:30:10.031Z,9.711713
2022-09-27T05:31:10.109Z,9.711638
2022-09-27T05:32:10.845Z,9.711611
2022-09-27T05:33:11.917Z,9.711624
2022-09-27T05:34:09.983Z,9.711624
2022-09-27T05:35:09.978Z,9.711624
2022-09-27T05:36:09.976Z,9.711442
2022-09-27T05:37:09.964Z,9.711581
2022-09-27T05:38:10.830Z,9.711518
2022-09-27T05:39:09.950Z,9.711540
2022-09-27T05:40:29.278Z,9.711561
2022-09-27T05:41:12.004Z,9.711405
2022-09-27T05:42:09.921Z,9.711511
2022-09-27T05:43:09.917Z,9.711346
2022-09-27T05:44:09.919Z,9.711331
2022-09-27T05:45:09.916Z,9.711486
2022-09-27T05:46:10.923Z,9.711482
2022-09-27T05:47:11.413Z,9.711601
2022-09-27T05:48:09.876Z,9.711636
2022-09-27T05:49:09.870Z,9.711431
2022-09-27T05:50:09.866Z,9.711599
2022-09-27T05:51:10.839Z,9.711560
2022-09-27T05:52:15.005Z,9.711596
2022-09-27T05:53:11.840Z,9.711619
2022-09-27T05:54:10.456Z,9.711759
2022-09-27T05:55:10.412Z,9.711661
2022-09-27T05:56:09.820Z,9.711594
2022-09-27T05:57:09.810Z,9.711664
2022-09-27T06:01:20.304Z,9.711677
2022-09-27T06:02:20.202Z,9.711610
2022-09-27T06:03:20.164Z,9.711580
2022-09-27T06:04:20.167Z,9.711645
2022-09-27T06:05:20.148Z,9.711578
2022-09-27T06:06:20.183Z,9.711569
2022-09-27T06:07:20.132Z,9.711580
2022-09-27T06:08:20.642Z,9.711556
2022-09-27T06:09:20.645Z,9.711642
2022-09-27T06:10:20.129Z,9.711460
2022-09-27T06:11:20.127Z,9.711554
2022-09-27T06:12:20.112Z,9.711592
2022-09-27T06:13:20.081Z,9.711600
2022-09-27T06:14:20.082Z,9.711650
2022-09-27T06:15:20.069Z,9.711659
2022-09-27T06:16:23.679Z,9.711665
2022-09-27T06:17:22.661Z,9.711604
2022-09-27T06:18:20.050Z,9.711627
2022-09-27T06:19:20.067Z,9.711658
2022-09-27T06:20:20.022Z,9.711660
2022-09-27T06:21:20.019Z,9.711660
2022-09-27T06:22:20.643Z,9.711644
2022-09-27T06:23:20.012Z,9.711658
2022-09-27T06:24:21.011Z,9.711665
2022-09-27T06:25:20.008Z,9.711597
2022-09-27T06:26:20.038Z,9.711769
2022-09-27T06:27:19.972Z,9.711711
2022-09-27T06:28:22.724Z,9.711579
2022-09-27T06:29:19.953Z,9.711617
2022-09-27T06:30:21.718Z,9.711569
2022-09-27T06:31:19.967Z,9.711521
2022-09-27T06:32:19.939Z,9.711617
2022-09-27T06:33:20.645Z,9.711726
2022-09-27T06:34:19.926Z,9.711762
2022-09-27T06:35:19.910Z,9.711710
2022-09-27T06:36:20.253Z,9.711650
2022-09-27T06:37:19.895Z,9.711671
2022-09-27T06:38:19.927Z,9.711699
2022-09-27T06:39:19.884Z,9.711729
2022-09-27T06:40:19.899Z,9.711867
2022-09-27T06:41:19.865Z,9.711780
2022-09-27T06:42:19.830Z,9.711751
2022-09-27T06:43:19.845Z,9.711958
2022-09-27T06:44:19.839Z,9.711710
2022-09-27T06:45:21.755Z,9.711733
2022-09-27T06:46:19.902Z,9.711705
2022-09-27T06:47:20.607Z,9.711665
2022-09-27T06:48:19.797Z,9.711668
2022-09-27T06:49:19.799Z,9.711863
2022-09-27T06:50:19.792Z,9.711828
2022-09-27T06:51:21.220Z,9.711985
2022-09-27T06:52:21.733Z,9.711883
2022-09-27T06:53:20.734Z,9.711780
2022-09-27T06:54:19.890Z,9.711582
2022-09-27T06:55:20.653Z,9.711624
2022-09-27T06:56:19.765Z,9.711724
2022-09-27T06:57:19.727Z,9.711649
2022-09-27T06:58:19.712Z,9.711637
2022-09-27T06:59:19.702Z,9.711576
2022-09-27T07:00:23.154Z,9.711638
2022-09-27T07:01:20.379Z,9.711666
2022-09-27T07:02:19.713Z,9.711652
2022-09-27T07:03:19.674Z,9.711691
2022-09-27T07:04:20.248Z,9.711684
2022-09-27T07:05:19.813Z,9.711723
2022-09-27T07:06:19.661Z,9.711679
2022-09-27T07:07:19.645Z,9.711677
2022-09-27T07:08:19.634Z,9.711584
2022-09-27T07:09:19.629Z,9.711549
2022-09-27T07:10:20.252Z,9.711594
2022-09-27T07:11:19.614Z,9.711619
2022-09-27T07:12:19.636Z,9.711643
2022-09-27T07:13:19.725Z,9.711653
2022-09-27T07:14:19.705Z,9.711598
2022-09-27T07:15:19.711Z,9.711620
2022-09-27T07:16:52.281Z,9.711649
2022-09-27T07:17:19.604Z,9.711674
2022-09-27T07:18:19.552Z,9.711627
2022-09-27T07:19:19.554Z,9.711651
2022-09-27T07:20:20.178Z,9.711614
2022-09-27T07:21:19.541Z,9.711658
2022-09-27T07:22:19.532Z,9.711627
2022-09-27T07:23:19.519Z,9.711621
2022-09-27T07:24:19.500Z,9.711612
2022-09-27T07:25:19.499Z,9.711717
2022-09-27T07:26:19.487Z,9.711718
2022-09-27T07:27:19.497Z,9.711701
2022-09-27T07:28:22.002Z,9.711748
2022-09-27T07:29:20.468Z,9.711737
2022-09-27T07:30:19.466Z,9.711574
2022-09-27T07:31:19.458Z,9.711716
2022-09-27T07:32:19.442Z,9.711667
2022-09-27T07:33:19.443Z,9.711864
2022-09-27T07:34:19.443Z,9.711908
2022-09-27T07:35:21.269Z,9.711881
2022-09-27T07:36:20.170Z,9.711915
2022-09-27T07:37:19.437Z,9.711755
2022-09-27T07:38:19.411Z,9.711691
2022-09-27T07:39:19.398Z,9.711802
2022-09-27T07:40:19.451Z,9.711756
2022-09-27T07:41:19.390Z,9.711674
2022-09-27T07:42:20.280Z,9.711628
2022-09-27T07:43:19.380Z,9.711658
2022-09-27T07:44:19.350Z,9.711840
2022-09-27T07:45:19.347Z,9.711903
2022-09-27T07:46:19.357Z,9.711850
2022-09-27T07:47:19.325Z,9.711854
2022-09-27T07:48:19.348Z,9.711751
2022-09-27T07:49:19.379Z,9.711635
2022-09-27T07:50:19.294Z,9.711535
2022-09-27T07:51:19.293Z,9.711804
2022-09-27T07:52:19.288Z,9.712059
2022-09-27T07:53:19.279Z,9.712237
2022-09-27T07:54:19.272Z,9.712727
2022-09-27T07:55:19.260Z,9.712395
2022-09-27T07:56:19.239Z,9.711913
2022-09-27T07:57:20.247Z,9.711917
2022-09-27T07:58:19.259Z,9.711671
2022-09-27T07:59:19.228Z,9.711635
2022-09-27T08:00:19.225Z,9.711623
2022-09-27T08:01:19.302Z,9.711744
2022-09-27T21:32:05.575Z,9.711427
2022-09-27T21:33:06.314Z,9.711538
2022-09-27T21:34:05.539Z,9.711727
2022-09-27T21:35:05.541Z,9.712009
2022-09-27T21:36:05.517Z,9.711330
2022-09-27T21:37:05.506Z,9.712016
2022-09-27T21:38:05.511Z,9.711459
2022-09-27T21:39:05.494Z,9.711583
2022-09-27T21:40:07.384Z,9.711405
2022-09-27T21:41:06.529Z,9.711483
2022-09-27T21:42:07.314Z,9.711711
2022-09-27T21:43:05.459Z,9.711781
2022-09-27T21:44:06.347Z,9.711765
2022-09-27T21:45:05.464Z,9.711769
2022-09-27T21:46:05.428Z,9.711715
2022-09-27T21:47:05.512Z,9.711705
2022-09-27T21:48:05.411Z,9.711685
2022-09-27T21:49:05.421Z,9.711690
2022-09-27T21:50:05.402Z,9.711677
2022-09-27T21:51:05.388Z,9.711691
2022-09-27T21:52:05.387Z,9.711606
2022-09-27T21:53:05.374Z,9.711720
2022-09-27T21:54:05.384Z,9.711772
2022-09-27T21:55:05.364Z,9.711767
2022-09-27T21:56:05.348Z,9.711753
2022-09-27T21:57:05.349Z,9.711747
2022-09-27T21:58:05.331Z,9.711650
2022-09-27T21:59:05.343Z,9.711625
2022-09-27T22:00:05.318Z,9.711637
2022-09-27T22:01:05.341Z,9.711687
2022-09-27T22:02:05.354Z,9.711830
2022-09-27T22:03:05.358Z,9.711743
2022-09-27T22:04:05.305Z,9.711407
2022-09-27T22:05:05.278Z,9.711513
2022-09-27T22:06:05.261Z,9.711857
2022-09-27T22:07:05.283Z,9.712015
2022-09-27T22:08:05.247Z,9.711813
2022-09-27T22:09:05.248Z,9.711732
2022-09-27T22:10:05.237Z,9.711857
2022-09-27T22:11:05.260Z,9.711760
2022-09-27T22:12:05.223Z,9.711901
2022-09-27T22:13:05.232Z,9.711947
2022-09-27T22:14:05.206Z,9.711937
2022-09-27T22:15:05.215Z,9.712109
2022-09-27T22:16:05.883Z,9.711999
2022-09-27T22:17:08.810Z,9.712031
2022-09-27T22:18:06.900Z,9.711846
2022-09-27T22:19:05.172Z,9.711477
2022-09-27T22:20:05.151Z,9.711241
2022-09-27T22:21:05.150Z,9.711210
2022-09-27T22:22:05.142Z,9.711335
2022-09-27T22:23:05.785Z,9.711746
2022-09-27T22:24:07.827Z,9.712025
2022-09-27T22:25:06.124Z,9.711716
2022-09-27T22:26:05.115Z,9.711738
2022-09-27T22:27:05.094Z,9.711735
2022-09-27T22:28:05.822Z,9.711739
2022-09-27T22:29:05.085Z,9.711697
2022-09-27T22:30:05.075Z,9.711686
2022-09-27T22:31:05.125Z,9.711706
2022-09-27T22:32:05.924Z,9.711656
2022-09-27T22:33:06.055Z,9.711698
2022-09-27T22:34:05.039Z,9.711773
2022-09-27T22:35:05.038Z,9.711730
2022-09-27T22:36:05.023Z,9.711775
2022-09-27T22:37:05.017Z,9.711721
2022-09-27T22:38:05.835Z,9.711698
2022-09-27T22:39:05.024Z,9.711724
2022-09-27T22:40:05.001Z,9.711683
2022-09-27T22:41:04.990Z,9.711905
2022-09-27T22:42:04.974Z,9.711923
2022-09-27T22:43:04.988Z,9.712025
2022-09-27T22:44:04.956Z,9.711867
2022-09-27T22:45:04.964Z,9.711741
2022-09-27T22:46:04.937Z,9.711625
2022-09-27T22:47:04.969Z,9.711639
2022-09-27T22:48:04.937Z,9.711704
2022-09-27T22:49:04.926Z,9.711696
2022-09-27T22:50:04.919Z,9.711681
2022-09-27T22:51:04.896Z,9.711801
2022-09-27T22:52:04.893Z,9.711693
2022-09-27T22:53:04.899Z,9.711649
2022-09-27T22:54:04.880Z,9.711555
2022-09-27T22:55:04.867Z,9.711663
2022-09-27T22:56:04.991Z,9.711652
2022-09-27T22:57:04.860Z,9.711676
2022-09-27T22:58:04.851Z,9.711682
2022-09-27T22:59:04.847Z,9.711637
2022-09-27T23:00:04.826Z,9.711668
2022-09-27T23:01:04.831Z,9.711673
2022-09-27T23:02:04.828Z,9.711658
2022-09-27T23:03:05.334Z,9.711710
2022-09-27T23:04:04.849Z,9.711667
2022-09-27T23:05:04.801Z,9.711850
2022-09-27T23:06:08.348Z,9.711920
2022-09-27T23:07:04.791Z,9.711844
2022-09-27T23:08:04.775Z,9.711925
2022-09-27T23:09:04.760Z,9.711955
2022-09-27T23:10:04.760Z,9.711875
2022-09-27T23:11:04.753Z,9.711736
2022-09-27T23:12:04.738Z,9.711760
2022-09-27T23:13:04.754Z,9.711811
2022-09-27T23:14:04.725Z,9.711785
2022-09-27T23:15:04.722Z,9.711797
2022-09-27T23:16:04.732Z,9.711936
2022-09-27T23:17:05.413Z,9.711982
2022-09-27T23:18:04.687Z,9.711853
2022-09-27T23:19:04.698Z,9.711667
2022-09-27T23:20:04.675Z,9.711621
2022-09-27T23:21:04.678Z,9.711535
2022-09-27T23:22:04.661Z,9.711634
2022-09-27T23:23:04.678Z,9.711660
2022-09-27T23:24:04.648Z,9.711669
2022-09-27T23:25:04.632Z,9.711644
2022-09-27T23:26:04.632Z,9.711658
2022-09-27T23:27:04.628Z,9.711651
2022-09-27T23:28:04.617Z,9.711627
2022-09-27T23:29:04.602Z,9.711491
2022-09-27T23:30:05.298Z,9.711637
2022-09-27T23:31:04.742Z,9.711706
2022-09-27T23:32:04.583Z,9.711843
2022-09-27T23:33:04.575Z,9.711683
2022-09-27T23:34:04.570Z,9.711636
2022-09-27T23:35:04.593Z,9.711739
2022-09-27T23:36:04.548Z,9.711781
2022-09-27T23:37:04.542Z,9.711916
2022-09-27T23:38:04.522Z,9.711848
2022-09-27T23:39:04.521Z,9.711831
2022-09-27T23:40:04.559Z,9.711802
2022-09-27T23:41:04.516Z,9.711743
2022-09-27T23:42:04.505Z,9.711776
2022-09-27T23:43:04.502Z,9.711896
2022-09-27T23:44:04.491Z,9.711816
2022-09-27T23:45:04.478Z,9.711944
2022-09-27T23:46:04.453Z,9.712007
2022-09-27T23:47:05.544Z,9.711739
2022-09-27T23:48:04.450Z,9.711815
2022-09-27T23:49:04.448Z,9.711738
2022-09-27T23:50:04.434Z,9.711830
2022-09-27T23:51:04.438Z,9.711840
2022-09-27T23:52:04.419Z,9.711935
2022-09-27T23:53:04.415Z,9.712020
2022-09-27T23:54:05.405Z,9.712368
2022-09-27T23:55:04.396Z,9.712377
2022-09-27T23:56:04.395Z,9.712582
2022-09-27T23:57:04.403Z,9.712665
2022-09-27T23:58:05.344Z,9.712697
2022-09-27T23:59:04.365Z,9.713078
